Time;durP1;ratioP1;P1;durP2;ratioP2;P2;SDS_P1;SDS_P2;PMS_P1;PMS_P2;Temp;Humidity;BMP_temperature;BMP_pressure;BME280_temperature;BME280_humidity;BME280_pressure;Samples;Min_cycle;Max_cycle;Signal;HPM_P1;HPM_P2
2023/01/02 04:02:41;;;;;;;26.63;13.25;;;11.10;99.90;;;;;;6063374;23;20027;-85
2023/01/02 04:06:21;;;;;;;;;;;;;;;;;;;;;
2023/01/02 04:09:57;;;;;;;;;;;;;;;;;;;;;
2023/01/02 04:12:19;;;;;;;28.77;13.48;;;11.10;99.90;;;;;;5978895;23;20444;-85
2023/01/02 04:15:12;;;;;;;28.92;14.82;;;11.10;99.90;;;;;;6071754;23;20023;-85
2023/01/02 04:17:44;;;;;;;24.60;13.25;;;11.20;99.90;;;;;;6018842;23;20377;-84
2023/01/02 04:20:17;;;;;;;27.45;14.35;;;11.20;99.90;;;;;;6046766;23;20019;-86
2023/01/02 04:22:53;;;;;;;29.48;14.65;;;11.20;99.90;;;;;;6024210;23;20014;-84
2023/01/02 04:25:21;;;;;;;26.15;13.95;;;11.10;99.90;;;;;;6072409;23;20011;-86
2023/01/02 04:28:01;;;;;;;35.10;16.15;;;11.20;99.90;;;;;;6023519;23;20397;-84
2023/01/02 04:30:29;;;;;;;30.60;14.85;;;11.20;99.90;;;;;;6047205;23;20332;-83
2023/01/02 04:33:12;;;;;;;27.88;15.55;;;11.20;99.90;;;;;;6046734;23;20057;-86
2023/01/02 04:35:37;;;;;;;31.00;13.85;;;11.20;99.90;;;;;;6046848;23;20026;-85
2023/01/02 04:38:42;;;;;;;31.58;15.90;;;11.10;99.90;;;;;;6046712;23;20010;-85
2023/01/02 04:41:38;;;;;;;35.90;15.50;;;11.20;99.90;;;;;;5957013;24;20012;-86
2023/01/02 04:44:04;;;;;;;38.78;16.83;;;11.20;99.90;;;;;;5932973;24;20424;-85
2023/01/02 04:46:30;;;;;;;33.53;14.75;;;11.20;99.90;;;;;;5933130;24;20021;-84
2023/01/02 04:49:34;;;;;;;;;;;;;;;;;;;;;
2023/01/02 04:52:30;;;;;;;32.38;14.48;;;11.20;99.90;;;;;;5927578;24;20016;-86
2023/01/02 04:54:55;;;;;;;32.88;14.98;;;11.20;99.90;;;;;;5933423;24;20080;-83
2023/01/02 04:57:21;;;;;;;27.27;12.95;;;11.20;99.90;;;;;;5956266;24;20017;-85
2023/01/02 04:59:46;;;;;;;27.52;15.32;;;11.20;99.90;;;;;;5932727;24;20016;-83
2023/01/02 05:02:12;;;;;;;27.48;14.20;;;11.30;99.90;;;;;;5955449;24;20016;-83
2023/01/02 05:04:38;;;;;;;29.27;14.95;;;11.30;99.90;;;;;;5933449;24;20021;-85
2023/01/02 05:07:04;;;;;;;30.77;14.98;;;11.30;99.90;;;;;;5960545;23;20110;-86
2023/01/02 05:09:29;;;;;;;31.50;15.30;;;11.30;99.90;;;;;;6046795;23;20093;-86
2023/01/02 05:11:56;;;;;;;31.95;14.02;;;11.30;99.90;;;;;;6072315;23;20504;-84
2023/01/02 05:14:22;;;;;;;30.00;13.23;;;11.30;99.90;;;;;;6071981;23;20023;-86
2023/01/02 05:16:47;;;;;;;31.42;15.65;;;11.40;99.90;;;;;;6071658;23;20044;-86
2023/01/02 05:19:13;;;;;;;22.25;12.70;;;11.30;99.90;;;;;;6022675;23;20022;-87
2023/01/02 05:24:41;;;;;;;29.23;14.32;;;11.40;99.90;;;;;;6045970;23;20492;-86
2023/01/02 05:27:25;;;;;;;23.67;13.90;;;11.40;99.90;;;;;;6071971;23;20014;-82
2023/01/02 05:29:51;;;;;;;32.97;15.52;;;11.40;99.90;;;;;;6071692;23;20437;-85
2023/01/02 05:32:17;;;;;;;23.05;12.82;;;11.40;99.90;;;;;;6071717;23;20077;-82
2023/01/02 05:34:42;;;;;;;32.90;14.82;;;11.40;99.90;;;;;;6071593;23;20022;-83
2023/01/02 05:37:21;;;;;;;24.60;13.85;;;11.40;99.90;;;;;;6046618;23;20010;-87
2023/01/02 05:39:47;;;;;;;29.42;14.25;;;11.40;99.90;;;;;;6046363;23;20022;-86
2023/01/02 05:42:12;;;;;;;35.72;15.98;;;11.40;99.90;;;;;;6046085;23;20010;-86
2023/01/02 05:44:57;;;;;;;28.42;14.02;;;11.40;99.90;;;;;;6022317;23;20015;-85
2023/01/02 05:47:25;;;;;;;29.88;14.45;;;11.40;99.90;;;;;;6022068;23;20023;-85
2023/01/02 05:49:53;;;;;;;24.85;13.80;;;11.40;99.90;;;;;;6045979;23;20019;-86
2023/01/02 05:52:19;;;;;;;28.25;15.63;;;11.40;99.90;;;;;;6021119;23;20022;-84
2023/01/02 05:54:44;;;;;;;29.30;15.77;;;11.40;99.90;;;;;;6021904;23;20508;-85
2023/01/02 05:57:13;;;;;;;29.27;16.05;;;11.40;99.90;;;;;;6021857;23;20094;-84
2023/01/02 05:59:41;;;;;;;30.85;17.20;;;11.40;99.90;;;;;;6023311;23;20025;-85
2023/01/02 06:06:52;;;;;;;;;;;;;;;;;;;;;
2023/01/02 06:26:21;;;;;;;23.38;12.23;;;11.30;99.90;;;;;;6034806;23;20023;-84
2023/01/02 06:29:19;;;;;;;21.52;12.73;;;11.30;99.90;;;;;;6016753;23;20019;-85
2023/01/02 06:31:47;;;;;;;24.42;13.55;;;11.30;99.90;;;;;;6018195;23;20019;-86
2023/01/02 06:37:35;;;;;;;7.38;4.20;;;11.20;99.90;;;;;;5950723;24;20025;-83
2023/01/02 06:57:04;;;;;;;13.23;8.95;;;10.20;99.90;;;;;;5900952;24;20104;-83
2023/01/02 06:59:47;;;;;;;14.23;9.00;;;10.20;99.90;;;;;;5872671;23;20021;-83
2023/01/02 07:05:11;;;;;;;;;;;;;;;;;;;;;
2023/01/02 07:08:26;;;;;;;18.65;11.85;;;10.00;99.90;;;;;;6046921;23;20093;-84
2023/01/02 07:16:43;;;;;;;20.17;8.73;;;9.80;99.90;;;;;;6068799;23;20038;-83
2023/01/02 07:23:26;;;;;;;22.30;8.38;;;9.60;99.90;;;;;;6067478;23;19970;-84
2023/01/02 07:26:12;;;;;;;15.80;6.28;;;9.50;99.90;;;;;;6033011;23;20066;-84
2023/01/02 07:28:59;;;;;;;12.68;5.68;;;9.30;99.90;;;;;;6023460;23;20046;-84
2023/01/02 07:39:05;;;;;;;7.28;3.15;;;9.00;99.90;;;;;;5957093;24;20034;-85
2023/01/02 07:53:41;;;;;;;;;;;;;;;;;;;;;
2023/01/02 08:03:26;;;;;;;6.82;3.40;;;8.50;99.90;;;;;;6070733;23;20022;-82
2023/01/02 08:06:34;;;;;;;5.05;2.05;;;8.50;99.90;;;;;;5929222;24;20088;-84
2023/01/02 08:14:26;;;;;;;;;;;;;;;;;;;;;
2023/01/02 08:17:14;;;;;;;9.70;3.42;;;8.40;99.90;;;;;;5823198;24;19950;-84
2023/01/02 08:20:00;;;;;;;5.43;2.80;;;8.40;99.90;;;;;;5821378;24;20033;-84
2023/01/02 08:26:03;;;;;;;8.18;3.95;;;8.30;99.90;;;;;;5844875;24;20039;-86
2023/01/02 08:28:29;;;;;;;8.05;3.30;;;8.40;99.90;;;;;;5804761;24;20024;-84
2023/01/02 08:31:10;;;;;;;8.32;3.13;;;8.40;99.90;;;;;;5883799;24;20027;-82
2023/01/02 08:33:36;;;;;;;6.32;2.88;;;8.40;99.90;;;;;;5957446;24;20081;-86
2023/01/02 08:36:14;;;;;;;8.15;3.20;;;8.40;99.90;;;;;;5936393;24;20379;-83
2023/01/02 08:38:44;;;;;;;7.95;3.92;;;8.40;99.90;;;;;;5938486;23;20128;-84
2023/01/02 08:41:09;;;;;;;10.07;3.70;;;8.40;99.90;;;;;;6019284;23;20019;-84
2023/01/02 08:43:44;;;;;;;8.05;3.95;;;8.40;99.90;;;;;;6019249;23;20015;-83
2023/01/02 08:46:10;;;;;;;9.45;4.03;;;8.40;99.90;;;;;;6020179;23;20015;-86
2023/01/02 08:48:36;;;;;;;9.07;3.35;;;8.40;99.90;;;;;;6018599;23;20019;-84
2023/01/02 08:51:15;;;;;;;7.85;3.40;;;8.40;99.90;;;;;;5997410;23;20406;-81
2023/01/02 08:53:43;;;;;;;5.93;2.95;;;8.40;99.90;;;;;;6019235;23;20071;-83
2023/01/02 08:56:29;;;;;;;8.02;3.53;;;8.30;99.90;;;;;;5996815;23;20447;-85
2023/01/02 08:58:56;;;;;;;;;;;8.30;99.90;;;;;;6019276;23;20393;-84
2023/01/02 09:01:23;;;;;;;12.85;4.05;;;8.30;99.90;;;;;;6043832;23;19913;-88
2023/01/02 09:03:50;;;;;;;14.02;3.58;;;8.40;99.90;;;;;;6044722;23;20055;-85
2023/01/02 09:06:15;;;;;;;9.13;3.28;;;8.30;99.90;;;;;;6019102;23;20039;-85
2023/01/02 09:08:41;;;;;;;7.70;3.25;;;8.40;99.90;;;;;;6020112;23;20331;-84
2023/01/02 09:11:16;;;;;;;10.80;3.70;;;8.30;99.90;;;;;;5996119;23;20019;-81
2023/01/02 09:13:44;;;;;;;11.18;3.00;;;8.30;99.90;;;;;;6018590;23;20015;-81
2023/01/02 09:16:10;;;;;;;13.80;3.90;;;8.30;99.90;;;;;;6018394;23;20034;-83
2023/01/02 09:18:38;;;;;;;10.18;3.22;;;8.30;99.90;;;;;;5995760;23;20055;-87
2023/01/02 09:21:04;;;;;;;8.35;2.63;;;8.30;99.90;;;;;;6018569;23;20008;-88
2023/01/02 09:23:31;;;;;;;9.55;3.60;;;8.30;99.90;;;;;;5997745;23;20015;-84
2023/01/02 09:26:07;;;;;;;6.10;2.70;;;8.30;99.90;;;;;;5997350;23;20090;-84
2023/01/02 09:28:34;;;;;;;6.38;2.42;;;8.40;99.90;;;;;;6019642;23;20015;-84
2023/01/02 09:31:14;;;;;;;6.53;2.63;;;8.30;99.90;;;;;;6044780;23;20019;-84
2023/01/02 09:33:41;;;;;;;7.88;2.50;;;8.30;99.90;;;;;;6043949;23;20020;-84
2023/01/02 09:36:09;;;;;;;7.55;2.70;;;8.30;99.90;;;;;;6019341;23;20077;-86
2023/01/02 09:38:35;;;;;;;9.00;3.15;;;8.30;99.90;;;;;;6019721;23;20026;-87
2023/01/02 09:41:15;;;;;;;10.38;3.83;;;8.30;99.90;;;;;;6021205;23;20015;-87
2023/01/02 09:43:49;;;;;;;8.98;2.58;;;8.30;99.90;;;;;;6021012;23;20023;-86
2023/01/02 09:46:38;;;;;;;8.52;2.63;;;8.40;99.90;;;;;;5996596;23;20015;-86
2023/01/02 09:49:04;;;;;;;9.30;2.90;;;8.40;99.90;;;;;;6044189;23;20011;-85
2023/01/02 09:51:32;;;;;;;8.63;2.70;;;8.40;99.90;;;;;;5997572;23;20083;-87
2023/01/02 09:53:59;;;;;;;6.57;2.42;;;8.40;99.90;;;;;;5994475;23;20505;-86
2023/01/02 09:56:41;;;;;;;7.60;2.53;;;8.40;99.90;;;;;;5995522;23;20020;-84
2023/01/02 09:59:40;;;;;;;;;;;;;;;;;;;;;
2023/01/02 10:02:20;;;;;;;7.95;2.47;;;8.40;99.90;;;;;;6017660;23;20022;-89
2023/01/02 10:05:31;;;;;;;4.43;2.03;;;8.40;99.90;;;;;;6019500;23;20022;-82
2023/01/02 10:08:04;;;;;;;7.20;2.85;;;8.50;99.90;;;;;;5902941;24;20022;-86
2023/01/02 10:10:57;;;;;;;6.57;2.72;;;8.50;99.90;;;;;;5879975;24;20409;-84
2023/01/02 10:13:37;;;;;;;8.75;2.58;;;8.50;99.90;;;;;;5866982;24;20078;-87
2023/01/02 10:19:41;;;;;;;;;;;8.50;99.90;;;;;;5885142;24;20407;-83
2023/01/02 10:22:16;;;;;;;5.72;2.67;;;8.60;99.90;;;;;;5899803;24;19939;-84
2023/01/02 10:25:14;;;;;;;9.02;3.28;;;8.60;99.90;;;;;;5913231;24;20025;-89
2023/01/02 10:27:55;;;;;;;8.98;2.85;;;8.60;99.90;;;;;;5887704;24;20022;-85
2023/01/02 10:30:31;;;;;;;10.77;3.90;;;8.60;99.90;;;;;;5890831;23;20052;-85
2023/01/02 10:33:17;;;;;;;9.80;3.38;;;8.60;99.90;;;;;;6022615;23;20023;-88
2023/01/02 10:35:46;;;;;;;;;;;8.60;99.90;;;;;;5999137;23;20044;-84
2023/01/02 10:38:19;;;;;;;8.65;3.20;;;8.60;99.90;;;;;;5999117;23;19960;-85
2023/01/02 10:40:47;;;;;;;8.38;3.10;;;8.60;99.90;;;;;;6021398;23;20015;-85
2023/01/02 10:43:14;;;;;;;8.75;3.33;;;8.60;99.90;;;;;;6046372;23;20011;-86
2023/01/02 10:45:45;;;;;;;14.32;3.58;;;8.70;99.90;;;;;;6021190;23;20022;-86
2023/01/02 10:48:14;;;;;;;7.63;2.80;;;8.60;99.90;;;;;;6022560;23;20019;-85
2023/01/02 10:50:46;;;;;;;12.35;3.10;;;8.70;99.90;;;;;;6020677;23;20026;-86
2023/01/02 10:53:30;;;;;;;12.75;3.53;;;8.70;99.90;;;;;;6022273;23;20105;-88
2023/01/02 10:56:00;;;;;;;13.02;3.85;;;8.70;99.90;;;;;;6021625;23;20015;-87
2023/01/02 10:58:28;;;;;;;9.27;3.25;;;8.80;99.90;;;;;;6019949;23;20027;-85
2023/01/02 11:01:19;;;;;;;10.90;3.60;;;8.80;99.90;;;;;;6019177;23;20011;-89
2023/01/02 11:03:46;;;;;;;10.68;3.20;;;8.80;99.90;;;;;;6018946;23;20019;-86
2023/01/02 11:06:27;;;;;;;6.85;3.08;;;8.80;99.90;;;;;;6045126;23;20362;-87
2023/01/02 11:09:15;;;;;;;12.00;2.95;;;8.80;99.90;;;;;;6020166;23;20029;-85
2023/01/02 11:11:48;;;;;;;10.27;3.08;;;8.90;99.90;;;;;;6020413;23;20091;-84
2023/01/02 11:14:14;;;;;;;11.23;3.03;;;8.90;99.90;;;;;;6020349;23;20449;-86
2023/01/02 11:16:40;;;;;;;10.27;2.47;;;8.90;99.90;;;;;;6044004;23;20019;-84
2023/01/02 11:19:20;;;;;;;9.32;2.75;;;9.00;99.90;;;;;;5996880;23;20434;-86
2023/01/02 11:21:51;;;;;;;9.88;3.00;;;9.00;99.90;;;;;;6045536;23;20090;-89
2023/01/02 11:24:24;;;;;;;10.70;2.67;;;9.00;99.90;;;;;;6045246;23;20016;-84
2023/01/02 11:26:50;;;;;;;5.97;2.28;;;9.00;99.90;;;;;;6019849;23;20051;-85
2023/01/02 11:29:33;;;;;;;8.90;2.63;;;9.10;99.90;;;;;;6017822;23;20019;-87
2023/01/02 11:32:01;;;;;;;7.38;2.03;;;9.10;99.90;;;;;;6019406;23;20062;-86
2023/01/02 11:34:39;;;;;;;8.27;2.22;;;9.10;99.90;;;;;;6019018;23;20011;-80
2023/01/02 11:37:11;;;;;;;8.32;1.77;;;9.10;99.90;;;;;;6018690;23;20012;-85
2023/01/02 11:39:37;;;;;;;6.38;1.65;;;9.10;99.90;;;;;;6043966;23;20019;-83
2023/01/02 11:45:19;;;;;;;10.80;2.05;;;9.10;99.90;;;;;;6018064;23;20358;-84
2023/01/02 11:47:49;;;;;;;13.02;1.60;;;9.10;99.90;;;;;;5994938;23;20023;-85
2023/01/02 11:50:23;;;;;;;7.72;1.67;;;9.10;99.90;;;;;;5995238;23;20023;-82
2023/01/02 11:53:21;;;;;;;13.13;1.70;;;9.00;99.90;;;;;;6044404;23;20007;-84
2023/01/02 11:56:00;;;;;;;13.40;2.70;;;9.00;99.90;;;;;;6011602;23;20042;-82
2023/01/02 11:59:04;;;;;;;11.43;1.80;;;9.00;99.90;;;;;;6043296;23;20026;-83
2023/01/02 12:01:54;;;;;;;6.88;1.45;;;9.00;99.90;;;;;;5905806;23;20514;-83
2023/01/02 12:04:22;;;;;;;9.90;1.35;;;9.00;99.90;;;;;;6019133;23;20019;-84
2023/01/02 12:07:24;;;;;;;12.38;2.17;;;9.20;99.90;;;;;;6044487;23;20019;-85
2023/01/02 12:09:56;;;;;;;10.25;1.80;;;9.20;99.90;;;;;;5996194;23;20015;-85
2023/01/02 12:13:07;;;;;;;9.98;2.25;;;9.30;99.90;;;;;;6044272;23;20529;-85
2023/01/02 12:15:48;;;;;;;6.28;1.38;;;9.40;99.90;;;;;;6044589;23;20058;-85
2023/01/02 12:18:40;;;;;;;8.07;1.27;;;9.40;99.90;;;;;;6044823;23;20066;-84
2023/01/02 12:21:18;;;;;;;7.80;1.38;;;9.40;99.90;;;;;;5995001;23;20379;-84
2023/01/02 12:23:51;;;;;;;8.98;1.85;;;9.40;99.90;;;;;;6018568;23;20058;-85
2023/01/02 12:26:37;;;;;;;;;;;;;;;;;;;;;
2023/01/02 12:29:11;;;;;;;11.05;1.70;;;9.30;99.90;;;;;;6020163;23;20019;-85
2023/01/02 12:31:55;;;;;;;13.80;2.73;;;9.30;99.90;;;;;;5995399;23;20127;-86
2023/01/02 12:34:55;;;;;;;13.23;1.67;;;9.30;99.90;;;;;;6018223;23;20011;-83
2023/01/02 12:37:44;;;;;;;13.27;1.38;;;9.30;99.90;;;;;;6017868;23;20020;-85
2023/01/02 12:40:35;;;;;;;15.05;2.22;;;9.30;99.90;;;;;;6044200;23;20039;-87
2023/01/02 12:43:19;;;;;;;10.57;2.28;;;9.40;99.90;;;;;;6043650;23;20015;-84
2023/01/02 12:46:00;;;;;;;10.82;1.75;;;9.40;99.90;;;;;;6018657;23;20026;-85
2023/01/02 12:48:35;;;;;;;10.95;1.92;;;9.40;99.90;;;;;;6043391;23;20434;-84
2023/01/02 12:51:18;;;;;;;16.42;2.10;;;9.40;99.90;;;;;;5995208;23;20026;-84
2023/01/02 12:53:49;;;;;;;12.07;2.28;;;9.40;99.90;;;;;;6018555;23;20050;-83
2023/01/02 12:56:27;;;;;;;12.88;1.83;;;9.40;99.90;;;;;;5994373;23;20019;-82
2023/01/02 12:59:10;;;;;;;15.02;3.03;;;9.40;99.90;;;;;;6042985;23;20020;-83
2023/01/02 13:01:52;;;;;;;13.80;2.65;;;9.40;99.90;;;;;;6017270;23;20098;-84
2023/01/02 13:04:31;;;;;;;14.40;3.22;;;9.40;99.90;;;;;;6042091;23;20291;-85
2023/01/02 13:07:45;;;;;;;12.00;2.95;;;9.40;99.90;;;;;;6017149;23;20439;-85
2023/01/02 13:10:17;;;;;;;14.02;2.95;;;9.30;99.90;;;;;;5901055;24;20444;-85
2023/01/02 13:12:45;;;;;;;14.77;2.92;;;9.30;99.90;;;;;;5901637;24;20389;-84
2023/01/02 13:15:11;;;;;;;15.18;2.78;;;9.40;99.90;;;;;;5961297;23;20430;-85
2023/01/02 13:18:02;;;;;;;11.27;3.08;;;9.30;99.90;;;;;;6043191;23;20043;-85
2023/01/02 13:20:35;;;;;;;13.60;2.70;;;9.30;99.90;;;;;;6017303;23;20038;-85
2023/01/02 13:23:29;;;;;;;14.25;3.42;;;9.40;99.90;;;;;;6042969;23;20015;-86
2023/01/02 13:26:17;;;;;;;10.50;2.05;;;9.40;99.90;;;;;;5993646;23;20398;-83
2023/01/02 13:28:52;;;;;;;11.55;2.17;;;9.40;99.90;;;;;;6017117;23;20027;-86
2023/01/02 13:31:17;;;;;;;17.02;3.17;;;9.40;99.90;;;;;;5993117;23;20346;-85
2023/01/02 13:33:52;;;;;;;20.88;3.05;;;9.40;99.90;;;;;;6016843;23;20026;-85
2023/01/02 13:36:34;;;;;;;18.85;3.08;;;9.40;99.90;;;;;;6042462;23;20311;-86
2023/01/02 13:39:12;;;;;;;8.73;2.38;;;9.40;99.90;;;;;;6041822;23;20086;-83
2023/01/02 13:44:37;;;;;;;13.93;3.00;;;9.40;99.90;;;;;;6017511;23;20088;-85
2023/01/02 13:47:26;;;;;;;13.93;2.92;;;9.40;99.90;;;;;;6018385;23;20073;-86
2023/01/02 13:50:08;;;;;;;21.98;3.58;;;9.40;99.90;;;;;;6017631;23;20098;-85
2023/01/02 13:52:34;;;;;;;16.67;3.13;;;9.40;99.90;;;;;;6017822;23;20046;-82
2023/01/02 13:55:30;;;;;;;19.17;5.18;;;9.30;99.90;;;;;;6016508;23;20030;-83
2023/01/02 14:00:56;;;;;;;19.52;2.80;;;9.30;99.90;;;;;;6016820;23;20023;-85
2023/01/02 14:03:22;;;;;;;15.60;3.47;;;9.30;99.90;;;;;;5993220;23;20015;-86
2023/01/02 14:06:30;;;;;;;15.43;3.35;;;9.30;99.90;;;;;;6018363;23;20023;-86
2023/01/02 14:09:11;;;;;;;18.60;3.50;;;9.30;99.90;;;;;;5971663;23;20019;-83
2023/01/02 14:11:44;;;;;;;42.65;16.10;;;9.30;99.90;;;;;;6016885;23;20015;-84
2023/01/02 14:14:28;;;;;;;15.60;3.35;;;9.20;99.90;;;;;;6041950;23;20015;-84
2023/01/02 14:17:21;;;;;;;16.83;3.17;;;9.30;99.90;;;;;;5993567;23;20097;-87
2023/01/02 14:20:16;;;;;;;17.65;3.30;;;9.20;99.90;;;;;;6042397;23;20015;-83
2023/01/02 14:23:07;;;;;;;12.27;2.17;;;9.20;99.90;;;;;;6015496;23;20066;-83
2023/01/02 14:25:42;;;;;;;15.05;2.90;;;9.20;99.90;;;;;;6041685;23;20018;-83
2023/01/02 14:28:20;;;;;;;12.15;2.85;;;9.10;99.90;;;;;;6041874;23;20074;-86
2023/01/02 14:30:47;;;;;;;11.60;3.75;;;9.10;99.90;;;;;;6041537;23;20043;-85
2023/01/02 14:33:20;;;;;;;15.50;3.50;;;9.10;99.90;;;;;;6041549;23;20007;-83
2023/01/02 14:35:52;;;;;;;16.88;3.35;;;9.00;99.90;;;;;;6040973;23;20007;-83
2023/01/02 14:38:23;;;;;;;16.08;3.13;;;9.00;99.90;;;;;;6016480;23;20347;-85
2023/01/02 14:40:50;;;;;;;12.00;3.00;;;9.00;99.90;;;;;;6016110;23;20019;-84
2023/01/02 14:43:29;;;;;;;17.02;6.97;;;8.90;99.90;;;;;;6015529;23;20042;-84
2023/01/02 14:46:19;;;;;;;24.75;6.65;;;8.90;99.90;;;;;;6041647;23;20022;-82
2023/01/02 14:49:02;;;;;;;21.63;3.88;;;8.90;99.90;;;;;;6042205;23;20019;-85
2023/01/02 14:51:37;;;;;;;16.02;3.58;;;8.90;99.90;;;;;;5994228;23;20015;-84
2023/01/02 14:54:16;;;;;;;17.77;3.33;;;8.80;99.90;;;;;;6043707;23;20018;-83
2023/01/02 14:56:46;;;;;;;14.77;3.72;;;8.80;99.90;;;;;;6019957;23;20105;-84
2023/01/02 14:59:30;;;;;;;15.45;3.67;;;8.80;99.90;;;;;;6044636;23;20012;-85
2023/01/02 15:02:07;;;;;;;13.23;3.67;;;8.80;99.90;;;;;;6045318;23;20019;-83
2023/01/02 15:04:46;;;;;;;12.95;3.33;;;8.80;99.90;;;;;;5997125;23;20383;-83
2023/01/02 15:07:33;;;;;;;14.95;3.13;;;8.80;99.90;;;;;;6018987;23;20023;-87
2023/01/02 15:10:23;;;;;;;17.13;3.17;;;8.70;99.90;;;;;;5995720;23;20738;-83
2023/01/02 15:13:02;;;;;;;13.43;3.45;;;8.70;99.90;;;;;;6043817;23;20323;-82
2023/01/02 15:15:34;;;;;;;16.33;3.30;;;8.70;99.90;;;;;;6018840;23;20019;-83
2023/01/02 15:18:16;;;;;;;17.05;3.78;;;8.60;99.90;;;;;;6019135;23;20023;-81
2023/01/02 15:20:42;;;;;;;17.27;3.55;;;8.60;99.90;;;;;;6020364;23;20021;-83
2023/01/02 15:23:18;;;;;;;14.98;3.50;;;8.60;99.90;;;;;;6045745;23;20395;-82
2023/01/02 15:25:46;;;;;;;15.27;2.90;;;8.60;99.90;;;;;;6038118;23;20019;-82
2023/01/02 15:28:33;;;;;;;17.88;3.92;;;8.50;99.90;;;;;;6035852;23;20042;-79
2023/01/02 15:31:11;;;;;;;18.30;3.13;;;8.50;99.90;;;;;;6047301;23;20027;-84
2023/01/02 15:33:37;;;;;;;13.90;3.63;;;8.50;99.90;;;;;;6020623;23;20023;-83
2023/01/02 15:36:16;;;;;;;16.75;4.35;;;8.40;99.90;;;;;;5996742;23;20095;-85
2023/01/02 15:38:43;;;;;;;22.77;4.93;;;8.50;99.90;;;;;;6020810;23;20050;-84
2023/01/02 15:41:17;;;;;;;15.25;3.40;;;8.50;99.90;;;;;;6043885;23;20117;-84
2023/01/02 15:46:28;;;;;;;20.85;3.03;;;8.40;99.90;;;;;;6045424;23;20079;-86
2023/01/02 15:48:54;;;;;;;12.57;2.92;;;8.40;99.90;;;;;;6019447;23;20015;-82
2023/01/02 15:51:22;;;;;;;13.20;3.30;;;8.40;99.90;;;;;;6019568;23;20019;-85
2023/01/02 15:53:51;;;;;;;11.90;2.55;;;8.30;99.90;;;;;;6019694;23;20019;-88
2023/01/02 15:56:37;;;;;;;16.45;3.95;;;8.40;99.90;;;;;;6044682;23;20018;-88
2023/01/02 15:59:04;;;;;;;;;;;8.30;99.90;;;;;;6019683;23;20027;-83
2023/01/02 16:01:30;;;;;;;10.30;2.30;;;8.30;99.90;;;;;;6045042;23;19920;-83
2023/01/02 16:04:04;;;;;;;13.68;5.47;;;8.30;99.90;;;;;;5994797;23;20043;-83
2023/01/02 16:06:41;;;;;;;21.73;3.88;;;8.30;99.90;;;;;;6018894;23;20071;-83
2023/01/02 16:09:17;;;;;;;24.70;11.40;;;8.30;99.90;;;;;;6019323;23;20090;-84
2023/01/02 16:11:46;;;;;;;11.13;4.13;;;8.30;99.90;;;;;;6019589;23;20022;-82
2023/01/02 16:14:19;;;;;;;20.40;6.85;;;8.30;99.90;;;;;;6045042;23;20082;-85
2023/01/02 16:17:11;;;;;;;14.88;3.28;;;8.30;99.90;;;;;;6019141;23;20026;-85
2023/01/02 16:19:51;;;;;;;14.07;3.05;;;8.20;99.90;;;;;;6012723;23;20018;-84
2023/01/02 16:22:21;;;;;;;13.45;5.00;;;8.30;99.90;;;;;;6044293;23;20015;-83
2023/01/02 16:24:56;;;;;;;25.40;9.57;;;8.20;99.90;;;;;;6018413;23;20493;-85
2023/01/02 16:27:29;;;;;;;18.88;9.48;;;8.20;99.90;;;;;;6019166;23;20346;-84
2023/01/02 16:29:55;;;;;;;10.98;4.63;;;8.20;99.90;;;;;;6018563;23;20015;-88
2023/01/02 16:32:31;;;;;;;17.73;5.30;;;8.10;99.90;;;;;;6019014;23;20058;-83
2023/01/02 16:35:24;;;;;;;17.05;5.10;;;8.10;99.90;;;;;;6045181;23;20011;-84
2023/01/02 16:38:17;;;;;;;15.68;3.70;;;8.10;99.90;;;;;;6028119;23;20019;-83
2023/01/02 16:40:47;;;;;;;14.07;4.78;;;8.10;99.90;;;;;;6045368;23;20007;-87
2023/01/02 16:43:14;;;;;;;10.85;3.38;;;8.00;99.90;;;;;;6020275;23;20015;-85
2023/01/02 16:45:40;;;;;;;12.60;3.95;;;8.00;99.90;;;;;;5996400;23;20090;-83
2023/01/02 16:48:10;;;;;;;18.55;4.45;;;8.00;99.90;;;;;;6020663;23;20391;-83
2023/01/02 16:50:42;;;;;;;12.57;3.25;;;8.00;99.90;;;;;;5995848;23;20045;-82
2023/01/02 16:53:10;;;;;;;27.17;5.85;;;7.90;99.90;;;;;;5995679;23;20020;-84
2023/01/02 16:55:35;;;;;;;12.23;5.60;;;7.90;99.90;;;;;;6019563;23;20442;-87
2023/01/02 16:58:01;;;;;;;13.80;3.90;;;7.80;99.90;;;;;;5995930;23;20022;-86
2023/01/02 17:00:26;;;;;;;15.20;3.88;;;7.80;99.90;;;;;;5996856;23;20015;-85
2023/01/02 17:02:52;;;;;;;9.80;3.88;;;7.70;99.90;;;;;;6020697;23;20026;-85
2023/01/02 17:05:35;;;;;;;17.05;5.63;;;7.70;99.90;;;;;;5996378;23;20019;-85
2023/01/02 17:08:01;;;;;;;15.05;3.78;;;7.60;99.90;;;;;;5996875;23;20015;-84
2023/01/02 17:10:27;;;;;;;16.58;3.85;;;7.60;99.90;;;;;;6020180;23;20457;-82
2023/01/02 17:12:53;;;;;;;11.25;3.40;;;7.50;99.90;;;;;;5996900;23;20054;-85
2023/01/02 17:15:19;;;;;;;15.93;3.80;;;7.50;99.90;;;;;;6045225;23;20011;-83
2023/01/02 17:17:44;;;;;;;15.50;4.53;;;7.40;99.90;;;;;;6020014;23;20019;-84
2023/01/02 17:20:13;;;;;;;14.48;4.53;;;7.40;99.90;;;;;;6044220;23;20337;-83
2023/01/02 17:22:39;;;;;;;19.83;4.93;;;7.40;99.90;;;;;;6043868;23;20016;-84
2023/01/02 17:25:07;;;;;;;17.10;4.28;;;7.30;99.90;;;;;;6043891;23;20346;-85
2023/01/02 17:27:33;;;;;;;17.55;5.55;;;7.20;99.90;;;;;;6019053;23;20015;-84
2023/01/02 17:30:01;;;;;;;17.00;5.63;;;7.20;99.90;;;;;;6018231;23;20031;-86
2023/01/02 17:32:28;;;;;;;17.08;5.78;;;7.10;99.90;;;;;;6018528;23;20019;-88
2023/01/02 17:34:54;;;;;;;17.58;6.22;;;7.10;99.90;;;;;;6043557;23;20059;-84
2023/01/02 17:37:23;;;;;;;17.02;7.65;;;7.00;99.90;;;;;;6019207;23;20015;-83
2023/01/02 17:39:52;;;;;;;21.02;7.03;;;7.00;99.90;;;;;;6044242;23;20043;-86
2023/01/02 17:42:18;;;;;;;39.42;24.17;;;6.90;99.90;;;;;;6044291;23;20015;-87
2023/01/02 17:44:44;;;;;;;29.73;20.90;;;6.90;99.90;;;;;;6020154;23;20011;-82
2023/01/02 17:47:11;;;;;;;18.23;8.55;;;6.80;99.90;;;;;;6018175;23;20405;-83
2023/01/02 17:49:40;;;;;;;19.92;10.90;;;6.80;99.90;;;;;;6044387;23;20015;-86
2023/01/02 17:52:06;;;;;;;18.90;10.23;;;6.80;99.90;;;;;;5995835;23;20083;-87
2023/01/02 17:54:32;;;;;;;21.38;8.73;;;6.70;99.90;;;;;;6019252;23;20015;-85
2023/01/02 17:56:57;;;;;;;28.33;15.82;;;6.70;99.90;;;;;;6043946;23;20015;-85
2023/01/02 17:59:23;;;;;;;9.23;4.82;;;6.70;99.90;;;;;;5995867;23;20103;-83
2023/01/02 18:01:49;;;;;;;25.58;11.23;;;6.70;99.90;;;;;;6019182;23;20021;-83
2023/01/02 18:04:15;;;;;;;11.60;5.18;;;6.70;99.90;;;;;;6043731;23;20022;-86
2023/01/02 18:06:41;;;;;;;18.40;5.20;;;6.70;99.90;;;;;;6019363;23;20022;-87
2023/01/02 18:09:07;;;;;;;12.95;5.47;;;6.70;99.90;;;;;;6043575;23;20007;-82
2023/01/02 18:11:34;;;;;;;20.00;7.85;;;6.70;99.90;;;;;;6017808;23;20096;-86
2023/01/02 18:14:01;;;;;;;26.58;14.10;;;6.60;99.90;;;;;;6017991;23;20031;-83
2023/01/02 18:16:37;;;;;;;17.05;5.00;;;6.70;99.90;;;;;;6018705;23;20379;-85
2023/01/02 18:19:09;;;;;;;12.15;4.70;;;6.60;99.90;;;;;;6018311;23;20083;-84
2023/01/02 18:21:35;;;;;;;11.82;4.43;;;6.60;99.90;;;;;;6019050;23;20365;-84
2023/01/02 18:24:05;;;;;;;10.25;4.50;;;6.60;99.90;;;;;;6019068;23;20015;-88
2023/01/02 18:26:31;;;;;;;9.07;5.15;;;6.60;99.90;;;;;;6019631;23;20015;-85
2023/01/02 18:29:01;;;;;;;14.55;6.47;;;6.60;99.90;;;;;;6044850;23;20022;-85
2023/01/02 18:31:30;;;;;;;20.58;7.05;;;6.60;99.90;;;;;;6019234;23;20079;-85
2023/01/02 18:34:01;;;;;;;19.48;5.05;;;6.60;99.90;;;;;;6045687;23;20011;-86
2023/01/02 18:36:28;;;;;;;23.70;5.85;;;6.50;99.90;;;;;;6045183;23;20375;-83
2023/01/02 18:39:18;;;;;;;13.73;4.78;;;6.50;99.90;;;;;;6019821;23;20015;-85
2023/01/02 18:41:44;;;;;;;19.25;6.40;;;6.50;99.90;;;;;;6019696;23;20342;-85
2023/01/02 18:44:25;;;;;;;19.20;7.88;;;6.40;99.90;;;;;;6020070;23;20021;-85
2023/01/02 18:46:59;;;;;;;14.85;6.70;;;6.40;99.90;;;;;;5996294;23;20400;-85
2023/01/02 18:49:28;;;;;;;13.00;5.60;;;6.40;99.90;;;;;;6045380;23;20383;-85
2023/01/02 18:52:05;;;;;;;14.65;5.50;;;6.30;99.90;;;;;;6045296;23;20120;-85
2023/01/02 18:54:31;;;;;;;14.23;5.00;;;6.30;99.90;;;;;;6044811;23;20011;-82
2023/01/02 18:57:15;;;;;;;14.20;6.07;;;6.30;99.90;;;;;;6045043;23;20047;-85
2023/01/02 18:59:50;;;;;;;16.67;4.80;;;6.20;99.90;;;;;;6019499;23;20016;-86
2023/01/02 19:02:27;;;;;;;14.13;5.28;;;6.20;99.90;;;;;;6044303;23;20015;-85
2023/01/02 19:04:55;;;;;;;14.80;5.50;;;6.10;99.90;;;;;;6019894;23;20513;-84
2023/01/02 19:07:31;;;;;;;14.63;5.72;;;6.10;99.90;;;;;;5996207;23;20023;-87
2023/01/02 19:10:31;;;;;;;14.38;5.05;;;6.20;99.90;;;;;;6019294;23;20012;-85
2023/01/02 19:13:00;;;;;;;11.00;4.88;;;6.20;99.90;;;;;;6033462;23;20042;-85
2023/01/02 19:15:36;;;;;;;14.73;5.80;;;6.10;99.90;;;;;;6044588;23;20014;-86
2023/01/02 19:18:26;;;;;;;12.80;4.63;;;6.10;99.90;;;;;;6044106;23;20023;-83
2023/01/02 19:20:57;;;;;;;16.80;4.40;;;6.20;99.90;;;;;;6019678;23;20015;-86
2023/01/02 19:23:43;;;;;;;12.45;4.18;;;6.10;99.90;;;;;;6019805;23;20079;-86
2023/01/02 19:26:20;;;;;;;12.60;4.15;;;6.10;99.90;;;;;;6018014;23;20019;-86
2023/01/02 19:28:52;;;;;;;9.05;4.35;;;6.10;99.90;;;;;;5995046;23;20443;-82
2023/01/02 19:31:17;;;;;;;11.65;4.68;;;6.00;99.90;;;;;;6043667;23;20007;-83